This is the latest recevied weather packets stored in our database for station/object IU8HRV-10. If no packets are shown the sender has not sent any weather packets the latest 10 day(s).
| Time | Temp. | Humidity | Pressure | Rain* | Wind** | Luminosity | Snow |
|---|---|---|---|---|---|---|---|
| 1777816191 | 29.44° C | 27% | 1020 hPa | - | - | - | - |
| 1777815289 | 29.44° C | 27% | 1020 hPa | - | - | - | - |
| 1777814388 | 28.89° C | 28% | 1020 hPa | - | - | - | - |
| 1777813487 | 27.78° C | 28% | 1020 hPa | - | - | - | - |
| 1777812586 | 28.33° C | 29% | 1020 hPa | - | - | - | - |
| 1777811685 | 27.22° C | 29% | 1020 hPa | - | - | - | - |
| 1777810784 | 26.67° C | 30% | 1020 hPa | - | - | - | - |
| 1777809883 | 25.56° C | 32% | 1020 hPa | - | - | - | - |
| 1777808982 | 25.56° C | 34% | 1020 hPa | - | - | - | - |
| 1777808081 | 23.89° C | 35% | 1020 hPa | - | - | - | - |
| 1777807180 | 23.33° C | 35% | 1020 hPa | - | - | - | - |
| 1777806279 | 22.78° C | 35% | 1020 hPa | - | - | - | - |
| 1777805378 | 22.78° C | 35% | 1020 hPa | - | - | - | - |
| 1777804477 | 22.22° C | 34% | 1021 hPa | - | - | - | - |
| 1777803575 | 22.22° C | 34% | 1021 hPa | - | - | - | - |
| 1777802674 | 22.22° C | 34% | 1021 hPa | - | - | - | - |
| 1777801773 | 21.11° C | 35% | 1021 hPa | - | - | - | - |
| 1777800872 | 21.67° C | 34% | 1021 hPa | - | - | - | - |
| 1777799971 | 21.67° C | 34% | 1021 hPa | - | - | - | - |
| 1777799070 | 22.22° C | 33% | 1021 hPa | - | - | - | - |
| 1777798169 | 22.22° C | 33% | 1021 hPa | - | - | - | - |
| 1777797268 | 21.11° C | 36% | 1021 hPa | - | - | - | - |
| 1777796367 | 20.56° C | 37% | 1021 hPa | - | - | - | - |
| 1777795465 | 20° C | 37% | 1021 hPa | - | - | - | - |
| 1777794564 | 18.33° C | 41% | 1021 hPa | - | - | - | - |
* Rain since midnight (hover to see other rain measurements)
** Current wind speed in m/s (hover to see current wind gust speed)